createdAt,value
2023-04-15T00:02:15.908Z,100.00
2023-04-15T00:04:43.552Z,100.00
2023-04-15T00:07:11.131Z,100.00
2023-04-15T00:09:38.687Z,100.00
2023-04-15T00:12:07.980Z,100.00
2023-04-15T00:14:36.617Z,100.00
2023-04-15T00:17:04.395Z,100.00
2023-04-15T00:19:32.518Z,100.00
2023-04-15T00:22:00.789Z,100.00
2023-04-15T00:24:28.201Z,100.00
2023-04-15T00:26:55.763Z,100.00
2023-04-15T00:29:24.620Z,100.00
2023-04-15T00:31:52.145Z,100.00
2023-04-15T00:34:19.555Z,100.00
2023-04-15T00:36:47.072Z,100.00
2023-04-15T00:39:14.727Z,100.00
2023-04-15T00:41:42.139Z,100.00
2023-04-15T00:44:10.497Z,100.00
2023-04-15T00:46:40.298Z,100.00
2023-04-15T00:49:08.240Z,100.00
2023-04-15T00:51:37.095Z,100.00
2023-04-15T00:54:05.124Z,100.00
2023-04-15T00:56:36.004Z,100.00
2023-04-15T00:59:03.511Z,100.00
2023-04-15T01:01:31.431Z,100.00
2023-04-15T01:04:00.375Z,100.00
2023-04-15T01:06:28.193Z,100.00
2023-04-15T01:08:56.562Z,100.00
2023-04-15T01:11:24.996Z,100.00
2023-04-15T01:13:52.980Z,100.00
2023-04-15T01:16:21.307Z,100.00
2023-04-15T01:18:49.588Z,100.00
2023-04-15T01:21:19.353Z,100.00
2023-04-15T01:23:48.890Z,100.00
2023-04-15T01:26:18.264Z,100.00
2023-04-15T01:28:46.063Z,100.00
2023-04-15T01:31:15.345Z,100.00
2023-04-15T01:33:44.348Z,100.00
2023-04-15T01:36:11.825Z,100.00
2023-04-15T01:38:39.977Z,100.00
2023-04-15T01:41:08.262Z,100.00
2023-04-15T01:43:37.774Z,100.00
2023-04-15T01:46:05.322Z,100.00
2023-04-15T01:48:33.464Z,100.00
2023-04-15T01:54:24.263Z,100.00
2023-04-15T01:56:52.074Z,100.00
2023-04-15T01:59:20.929Z,100.00
2023-04-15T02:01:48.393Z,100.00
2023-04-15T02:04:17.323Z,100.00
2023-04-15T02:06:44.894Z,100.00
2023-04-15T02:09:12.403Z,100.00
2023-04-15T02:11:39.876Z,100.00
2023-04-15T02:14:07.356Z,100.00
2023-04-15T02:16:36.604Z,100.00
2023-04-15T02:19:04.266Z,100.00
2023-04-15T02:21:31.851Z,100.00
2023-04-15T02:23:59.289Z,100.00
2023-04-15T02:26:26.699Z,100.00
2023-04-15T02:28:54.202Z,100.00
2023-04-15T02:31:22.183Z,100.00
2023-04-15T02:33:51.059Z,100.00
2023-04-15T02:36:18.482Z,100.00
2023-04-15T02:38:45.937Z,100.00
2023-04-15T02:41:13.651Z,100.00
2023-04-15T02:43:41.123Z,100.00
2023-04-15T02:46:08.756Z,100.00
2023-04-15T02:48:36.934Z,100.00
2023-04-15T02:51:16.771Z,100.00
2023-04-15T02:53:44.361Z,100.00
2023-04-15T02:56:12.556Z,100.00
2023-04-15T02:58:41.341Z,100.00
2023-04-15T03:01:09.135Z,100.00
2023-04-15T03:03:36.871Z,100.00
2023-04-15T03:06:04.553Z,100.00
2023-04-15T03:08:33.365Z,100.00
2023-04-15T03:11:02.689Z,100.00
2023-04-15T03:13:30.160Z,100.00
2023-04-15T03:15:57.667Z,100.00
2023-04-15T03:18:25.407Z,100.00
2023-04-15T03:20:52.880Z,100.00
2023-04-15T03:23:20.752Z,100.00
2023-04-15T03:25:58.077Z,100.00
2023-04-15T03:28:26.875Z,100.00
2023-04-15T03:30:54.337Z,100.00
2023-04-15T03:33:21.825Z,100.00
2023-04-15T03:35:49.432Z,100.00
2023-04-15T03:38:19.085Z,100.00
2023-04-15T03:40:49.380Z,100.00
2023-04-15T03:43:17.136Z,100.00
2023-04-15T03:45:44.709Z,100.00
2023-04-15T03:48:17.682Z,100.00
2023-04-15T03:50:46.033Z,100.00
2023-04-15T03:53:13.562Z,100.00
2023-04-15T03:55:41.032Z,100.00
2023-04-15T03:58:12.794Z,100.00
2023-04-15T04:00:41.426Z,100.00
2023-04-15T04:03:09.222Z,100.00
2023-04-15T04:05:39.062Z,100.00
2023-04-15T04:08:07.225Z,100.00
2023-04-15T04:10:36.581Z,100.00
2023-04-15T04:13:04.090Z,100.00
2023-04-15T04:15:32.984Z,100.00
2023-04-15T04:18:00.863Z,100.00
2023-04-15T04:20:28.387Z,100.00
2023-04-15T04:22:55.991Z,100.00
2023-04-15T04:25:24.509Z,100.00
2023-04-15T04:27:52.085Z,100.00
2023-04-15T04:30:19.795Z,100.00
2023-04-15T04:32:48.636Z,100.00
2023-04-15T04:35:16.116Z,100.00
2023-04-15T04:37:43.538Z,100.00
2023-04-15T04:40:11.959Z,100.00
2023-04-15T04:42:40.105Z,100.00
2023-04-15T04:45:08.621Z,99.60
2023-04-15T04:47:36.375Z,100.00
2023-04-15T04:50:05.848Z,99.67
2023-04-15T04:52:33.344Z,100.00
2023-04-15T04:55:00.841Z,100.00
2023-04-15T04:57:28.363Z,100.00
2023-04-15T04:59:55.920Z,100.00
2023-04-15T05:02:23.615Z,100.00
2023-04-15T05:04:54.388Z,100.00
2023-04-15T05:07:23.347Z,100.00
2023-04-15T05:09:50.885Z,100.00
2023-04-15T05:12:18.471Z,100.00
2023-04-15T05:14:46.743Z,100.00
2023-04-15T05:17:14.299Z,100.00
2023-04-15T05:19:41.684Z,100.00
2023-04-15T05:22:09.279Z,100.00
2023-04-15T05:24:38.045Z,100.00
2023-04-15T05:27:05.565Z,100.00
2023-04-15T05:29:33.002Z,100.00
2023-04-15T05:32:00.502Z,100.00
2023-04-15T05:34:27.936Z,100.00
2023-04-15T05:36:55.416Z,100.00
2023-04-15T05:39:22.936Z,100.00
2023-04-15T05:41:52.103Z,100.00
2023-04-15T05:44:19.645Z,100.00
2023-04-15T05:46:47.188Z,100.00
2023-04-15T05:49:14.712Z,100.00
2023-04-15T05:51:42.216Z,100.00
2023-04-15T05:54:09.637Z,100.00
2023-04-15T05:56:37.109Z,100.00
2023-04-15T05:59:05.827Z,100.00
2023-04-15T06:01:34.894Z,98.28
2023-04-15T06:04:03.137Z,100.00
2023-04-15T06:06:30.853Z,98.77
2023-04-15T06:08:58.321Z,97.02
2023-04-15T06:11:26.734Z,100.00
2023-04-15T06:13:54.176Z,100.00
2023-04-15T06:16:23.199Z,100.00
2023-04-15T06:18:50.712Z,100.00
2023-04-15T06:21:18.176Z,99.92
2023-04-15T06:23:45.856Z,100.00
2023-04-15T06:26:13.285Z,100.00
2023-04-15T06:28:40.702Z,100.00
2023-04-15T06:31:08.168Z,100.00
2023-04-15T06:33:36.893Z,97.89
2023-04-15T06:36:04.510Z,99.13
2023-04-15T06:38:32.104Z,99.50
2023-04-15T06:40:59.570Z,100.00
2023-04-15T06:43:27.037Z,100.00
2023-04-15T06:45:54.529Z,97.84
2023-04-15T06:48:22.074Z,97.14
2023-04-15T06:50:51.449Z,94.37
2023-04-15T06:53:19.537Z,92.76
2023-04-15T06:55:46.961Z,91.93
2023-04-15T06:58:14.403Z,95.23
2023-04-15T07:00:41.817Z,97.48
2023-04-15T07:03:11.298Z,97.60
2023-04-15T07:05:38.839Z,95.90
2023-04-15T07:08:07.684Z,95.75
2023-04-15T07:10:35.253Z,96.05
2023-04-15T07:13:02.803Z,97.66
2023-04-15T07:15:30.212Z,96.54
2023-04-15T07:17:57.664Z,96.14
2023-04-15T07:20:25.638Z,95.97
2023-04-15T07:22:53.170Z,99.40
2023-04-15T07:25:22.268Z,99.72
2023-04-15T07:27:49.737Z,97.81
2023-04-15T07:30:17.407Z,98.06
2023-04-15T07:32:44.817Z,96.15
2023-04-15T07:35:12.264Z,96.85
2023-04-15T07:37:39.740Z,100.00
2023-04-15T07:40:09.013Z,100.00
2023-04-15T07:42:40.036Z,100.00
2023-04-15T07:45:09.894Z,100.00
2023-04-15T07:47:37.392Z,100.00
2023-04-15T07:50:05.357Z,100.00
2023-04-15T07:52:38.417Z,100.00
2023-04-15T07:55:07.092Z,99.03
2023-04-15T07:57:34.548Z,100.00
2023-04-15T08:00:05.796Z,100.00
2023-04-15T08:02:33.466Z,100.00
2023-04-15T08:05:02.961Z,100.00
2023-04-15T08:07:30.504Z,100.00
2023-04-15T08:09:57.920Z,100.00
2023-04-15T08:12:25.838Z,99.87
2023-04-15T08:14:53.265Z,100.00
2023-04-15T08:17:22.031Z,100.00
2023-04-15T08:19:58.711Z,100.00
2023-04-15T08:22:26.162Z,100.00
2023-04-15T08:24:53.566Z,100.00
2023-04-15T08:27:21.510Z,100.00
2023-04-15T08:29:48.936Z,100.00
2023-04-15T08:32:16.965Z,100.00
2023-04-15T08:34:45.829Z,100.00
2023-04-15T08:37:13.492Z,100.00
2023-04-15T08:39:40.955Z,100.00
2023-04-15T08:42:16.986Z,100.00
2023-04-15T08:44:44.625Z,100.00
2023-04-15T08:47:14.856Z,100.00
2023-04-15T08:49:43.716Z,99.47
2023-04-15T08:52:12.729Z,98.65
2023-04-15T08:54:40.638Z,99.56
2023-04-15T08:57:08.597Z,100.00
2023-04-15T08:59:36.406Z,100.00
2023-04-15T09:02:04.638Z,100.00
2023-04-15T09:04:32.380Z,100.00
2023-04-15T09:06:59.758Z,100.00
2023-04-15T09:09:29.111Z,100.00
2023-04-15T09:11:56.806Z,100.00
2023-04-15T09:14:24.238Z,100.00
2023-04-15T09:16:58.436Z,100.00
2023-04-15T09:19:26.502Z,98.54
2023-04-15T09:21:58.635Z,100.00
2023-04-15T09:24:37.375Z,99.70
2023-04-15T09:27:05.441Z,100.00
2023-04-15T09:29:34.220Z,100.00
2023-04-15T09:32:13.941Z,100.00
2023-04-15T09:34:41.827Z,100.00
2023-04-15T09:37:10.939Z,96.49
2023-04-15T09:39:51.047Z,100.00
2023-04-15T09:42:24.553Z,100.00
2023-04-15T09:44:52.762Z,100.00
2023-04-15T09:47:30.111Z,100.00
2023-04-15T09:49:58.506Z,100.00
2023-04-15T09:52:26.178Z,100.00
2023-04-15T09:54:56.624Z,100.00
2023-04-15T09:57:24.631Z,100.00
2023-04-15T09:59:52.180Z,100.00
2023-04-15T10:02:20.773Z,98.81
2023-04-15T10:04:49.650Z,100.00
2023-04-15T10:07:20.537Z,100.00
2023-04-15T10:09:49.690Z,100.00
2023-04-15T10:12:19.688Z,100.00
2023-04-15T10:14:53.639Z,100.00
2023-04-15T10:17:23.463Z,100.00
2023-04-15T10:19:55.474Z,100.00
2023-04-15T10:22:23.840Z,100.00
2023-04-15T10:24:52.256Z,100.00
2023-04-15T10:27:22.078Z,99.81
2023-04-15T10:29:50.345Z,100.00
2023-04-15T10:32:20.015Z,100.00
2023-04-15T10:34:48.297Z,100.00
2023-04-15T10:37:22.071Z,100.00
2023-04-15T10:39:50.717Z,100.00
2023-04-15T10:42:20.702Z,100.00
2023-04-15T10:44:51.590Z,100.00
2023-04-15T10:47:21.483Z,100.00
2023-04-15T10:49:50.900Z,100.00
2023-04-15T10:52:19.794Z,100.00
2023-04-15T10:54:47.570Z,100.00
2023-04-15T10:57:17.468Z,100.00
2023-04-15T11:00:12.828Z,97.38
2023-04-15T11:02:42.340Z,98.02
2023-04-15T11:05:10.601Z,98.41
2023-04-15T11:07:48.539Z,100.00
2023-04-15T11:10:53.754Z,100.00
2023-04-15T11:13:27.250Z,100.00
2023-04-15T11:16:00.281Z,100.00
2023-04-15T11:18:31.230Z,100.00
2023-04-15T11:21:01.111Z,100.00
2023-04-15T11:23:30.545Z,100.00
2023-04-15T11:25:58.534Z,100.00
2023-04-15T11:28:27.824Z,100.00
2023-04-15T11:30:55.648Z,100.00
2023-04-15T11:33:25.889Z,100.00
2023-04-15T11:35:55.067Z,100.00
2023-04-15T11:38:23.263Z,100.00
2023-04-15T11:40:52.100Z,100.00
2023-04-15T11:43:21.505Z,100.00
2023-04-15T11:45:51.478Z,100.00
2023-04-15T11:48:20.067Z,100.00
2023-04-15T11:50:54.478Z,100.00
2023-04-15T11:53:22.077Z,100.00
2023-04-15T11:55:51.224Z,100.00
2023-04-15T11:58:20.559Z,100.00
2023-04-15T12:00:49.646Z,100.00
2023-04-15T12:03:23.846Z,100.00
2023-04-15T12:06:23.494Z,100.00
2023-04-15T12:08:52.618Z,100.00
2023-04-15T12:11:20.519Z,98.25
2023-04-15T12:13:49.531Z,98.78
2023-04-15T12:16:18.680Z,100.00
2023-04-15T12:18:47.138Z,100.00
2023-04-15T12:21:15.418Z,100.00
2023-04-15T12:23:50.683Z,100.00
2023-04-15T12:26:19.133Z,100.00
2023-04-15T12:28:46.792Z,100.00
2023-04-15T12:31:15.596Z,100.00
2023-04-15T12:33:43.456Z,100.00
2023-04-15T12:36:10.927Z,100.00
2023-04-15T12:38:38.319Z,100.00
2023-04-15T12:41:07.041Z,100.00
2023-04-15T12:43:34.452Z,100.00
2023-04-15T12:46:01.840Z,100.00
2023-04-15T12:48:29.296Z,100.00
2023-04-15T12:50:56.880Z,100.00
2023-04-15T12:53:24.300Z,100.00
2023-04-15T12:55:51.806Z,100.00
2023-04-15T12:58:20.526Z,100.00
2023-04-15T13:00:48.621Z,100.00
2023-04-15T13:03:16.450Z,100.00
2023-04-15T13:05:44.408Z,100.00
2023-04-15T13:08:12.017Z,100.00
2023-04-15T13:10:39.501Z,100.00
2023-04-15T13:13:06.993Z,100.00
2023-04-15T13:15:35.929Z,100.00
2023-04-15T13:18:03.427Z,100.00
2023-04-15T13:20:31.255Z,100.00
2023-04-15T13:22:58.654Z,100.00
2023-04-15T13:25:27.058Z,100.00
2023-04-15T13:27:54.486Z,100.00
2023-04-15T13:30:21.952Z,100.00
2023-04-15T13:32:51.194Z,100.00
2023-04-15T13:35:18.832Z,100.00
2023-04-15T13:37:46.317Z,100.00
2023-04-15T13:40:13.842Z,100.00
2023-04-15T13:42:41.601Z,100.00
2023-04-15T13:45:11.063Z,100.00
2023-04-15T13:47:38.619Z,100.00
2023-04-15T13:50:08.529Z,100.00
2023-04-15T13:52:36.199Z,100.00
2023-04-15T13:55:08.172Z,100.00
2023-04-15T13:57:48.478Z,100.00
2023-04-15T14:00:16.643Z,100.00
2023-04-15T14:02:44.304Z,100.00
2023-04-15T14:05:13.168Z,100.00
2023-04-15T14:07:40.831Z,100.00
2023-04-15T14:10:09.313Z,100.00
2023-04-15T14:12:36.949Z,100.00
2023-04-15T14:15:05.058Z,100.00
2023-04-15T14:17:33.949Z,100.00
2023-04-15T14:20:01.508Z,100.00
2023-04-15T14:22:30.226Z,100.00
2023-04-15T14:24:57.656Z,100.00
2023-04-15T14:27:25.091Z,100.00
2023-04-15T14:29:53.534Z,100.00
2023-04-15T14:32:21.025Z,100.00
2023-04-15T14:34:48.522Z,100.00
2023-04-15T14:37:16.029Z,100.00
2023-04-15T14:39:44.770Z,100.00
2023-04-15T14:42:12.181Z,100.00
2023-04-15T14:44:39.629Z,100.00
2023-04-15T14:47:07.221Z,100.00
2023-04-15T14:49:34.653Z,100.00
2023-04-15T14:52:02.039Z,100.00
2023-04-15T14:54:29.459Z,100.00
2023-04-15T14:56:58.478Z,100.00
2023-04-15T14:59:26.114Z,100.00
2023-04-15T15:01:53.919Z,100.00
2023-04-15T15:04:21.558Z,100.00
2023-04-15T15:06:49.220Z,100.00
2023-04-15T15:09:16.771Z,100.00
2023-04-15T15:11:44.211Z,100.00
2023-04-15T15:14:12.946Z,100.00
2023-04-15T15:16:40.344Z,100.00
2023-04-15T15:19:07.745Z,100.00
2023-04-15T15:21:35.558Z,100.00
2023-04-15T15:24:02.948Z,100.00
2023-04-15T15:26:30.391Z,100.00
2023-04-15T15:28:58.003Z,100.00
2023-04-15T15:31:26.800Z,100.00
2023-04-15T15:33:54.316Z,100.00
2023-04-15T15:36:21.813Z,100.00
2023-04-15T15:38:49.230Z,100.00
2023-04-15T15:41:16.773Z,100.00
2023-04-15T15:43:44.179Z,100.00
2023-04-15T15:46:11.698Z,100.00
2023-04-15T15:48:40.494Z,100.00
2023-04-15T15:51:07.906Z,100.00
2023-04-15T15:53:35.378Z,100.00
2023-04-15T15:56:04.072Z,100.00
2023-04-15T15:58:32.020Z,100.00
2023-04-15T16:01:02.067Z,100.00
2023-04-15T16:03:30.110Z,100.00
2023-04-15T16:05:58.939Z,100.00
2023-04-15T16:08:26.596Z,100.00
2023-04-15T16:10:54.046Z,100.00
2023-04-15T16:13:21.453Z,100.00
2023-04-15T16:15:50.055Z,100.00
2023-04-15T16:18:17.608Z,100.00
2023-04-15T16:20:45.307Z,100.00
2023-04-15T16:23:15.651Z,100.00
2023-04-15T16:25:44.513Z,100.00
2023-04-15T16:28:25.118Z,100.00
2023-04-15T16:30:54.415Z,100.00
2023-04-15T16:33:21.901Z,100.00
2023-04-15T16:35:49.397Z,100.00
2023-04-15T16:38:18.223Z,100.00
2023-04-15T16:40:45.697Z,100.00
2023-04-15T16:43:13.139Z,100.00
2023-04-15T16:45:40.649Z,100.00
2023-04-15T16:48:08.313Z,100.00
2023-04-15T16:50:37.345Z,100.00
2023-04-15T16:53:04.791Z,100.00
2023-04-15T16:55:33.534Z,100.00
2023-04-15T16:58:04.184Z,100.00
2023-04-15T17:00:33.007Z,100.00
2023-04-15T17:03:01.461Z,100.00
2023-04-15T17:05:29.203Z,100.00
2023-04-15T17:07:56.616Z,100.00
2023-04-15T17:10:24.445Z,100.00
2023-04-15T17:12:53.382Z,100.00
2023-04-15T17:15:21.215Z,100.00
2023-04-15T17:17:48.760Z,100.00
2023-04-15T17:20:17.400Z,100.00
2023-04-15T17:22:45.212Z,100.00
2023-04-15T17:25:14.228Z,100.00
2023-04-15T17:27:41.879Z,100.00
2023-04-15T17:30:11.744Z,100.00
2023-04-15T17:32:40.019Z,100.00
2023-04-15T17:35:08.755Z,100.00
2023-04-15T17:37:36.288Z,100.00
2023-04-15T17:40:06.644Z,100.00
2023-04-15T17:42:35.568Z,100.00
2023-04-15T17:45:03.124Z,100.00
2023-04-15T17:47:31.974Z,100.00
2023-04-15T17:49:59.408Z,100.00
2023-04-15T17:52:26.907Z,100.00
2023-04-15T17:54:54.364Z,100.00
2023-04-15T17:57:21.772Z,100.00
2023-04-15T17:59:49.224Z,100.00
2023-04-15T18:02:16.748Z,100.00
2023-04-15T18:04:45.770Z,100.00
2023-04-15T18:07:13.488Z,100.00
2023-04-15T18:09:41.492Z,100.00
2023-04-15T18:12:09.188Z,100.00
2023-04-15T18:14:36.887Z,100.00
2023-04-15T18:17:04.559Z,100.00
2023-04-15T18:19:32.069Z,100.00
2023-04-15T18:22:00.980Z,100.00
2023-04-15T18:24:28.722Z,100.00
2023-04-15T18:26:56.394Z,100.00
2023-04-15T18:29:24.009Z,100.00
2023-04-15T18:31:52.630Z,100.00
2023-04-15T18:34:20.204Z,100.00
2023-04-15T18:36:47.638Z,100.00
2023-04-15T18:39:17.029Z,100.00
2023-04-15T18:41:44.497Z,100.00
2023-04-15T18:44:11.953Z,100.00
2023-04-15T18:46:39.444Z,100.00
2023-04-15T18:49:07.037Z,100.00
2023-04-15T18:51:34.667Z,100.00
2023-04-15T18:54:02.426Z,100.00
2023-04-15T18:56:31.516Z,100.00
2023-04-15T18:59:09.544Z,100.00
2023-04-15T19:01:46.697Z,100.00
2023-04-15T19:04:14.353Z,100.00
2023-04-15T19:06:41.913Z,100.00
2023-04-15T19:09:09.439Z,100.00
2023-04-15T19:11:38.397Z,100.00
2023-04-15T19:14:06.637Z,100.00
2023-04-15T19:16:34.091Z,100.00
2023-04-15T19:19:01.668Z,100.00
2023-04-15T19:21:30.450Z,100.00
2023-04-15T19:23:58.351Z,100.00
2023-04-15T19:26:25.803Z,100.00
2023-04-15T19:28:54.730Z,100.00
2023-04-15T19:31:22.210Z,100.00
2023-04-15T19:33:49.780Z,100.00
2023-04-15T19:36:18.073Z,100.00
2023-04-15T19:38:45.550Z,100.00
2023-04-15T19:41:13.079Z,100.00
2023-04-15T19:43:40.483Z,100.00
2023-04-15T19:46:09.610Z,100.00
2023-04-15T19:48:37.056Z,100.00
2023-04-15T19:51:04.650Z,100.00
2023-04-15T19:53:32.084Z,100.00
2023-04-15T19:55:59.561Z,100.00
2023-04-15T19:58:27.048Z,100.00
2023-04-15T20:00:54.553Z,100.00
2023-04-15T20:03:23.498Z,100.00
2023-04-15T20:05:51.145Z,100.00
2023-04-15T20:08:18.914Z,100.00
2023-04-15T20:10:46.352Z,100.00
2023-04-15T20:13:13.820Z,100.00
2023-04-15T20:15:41.351Z,100.00
2023-04-15T20:18:08.911Z,100.00
2023-04-15T20:20:41.479Z,100.00
2023-04-15T20:23:08.992Z,100.00
2023-04-15T20:25:36.464Z,100.00
2023-04-15T20:28:03.874Z,100.00
2023-04-15T20:30:31.309Z,100.00
2023-04-15T20:32:58.806Z,100.00
2023-04-15T20:35:28.186Z,100.00
2023-04-15T20:37:56.976Z,100.00
2023-04-15T20:40:24.429Z,100.00
2023-04-15T20:42:51.824Z,100.00
2023-04-15T20:45:19.252Z,100.00
2023-04-15T20:47:46.707Z,100.00
2023-04-15T20:50:14.383Z,100.00
2023-04-15T20:52:41.779Z,100.00
2023-04-15T20:55:11.161Z,100.00
2023-04-15T20:57:38.568Z,100.00
2023-04-15T21:00:09.331Z,100.00
2023-04-15T21:02:36.926Z,100.00
2023-04-15T21:05:04.655Z,100.00
2023-04-15T21:07:32.083Z,100.00
2023-04-15T21:09:59.486Z,100.00
2023-04-15T21:12:28.281Z,100.00
2023-04-15T21:14:55.719Z,100.00
2023-04-15T21:17:23.223Z,100.00
2023-04-15T21:19:50.843Z,100.00
2023-04-15T21:22:18.257Z,100.00
2023-04-15T21:24:45.673Z,100.00
2023-04-15T21:27:13.093Z,100.00
2023-04-15T21:29:41.818Z,100.00
2023-04-15T21:32:09.331Z,100.00
2023-04-15T21:34:36.986Z,100.00
2023-04-15T21:37:04.509Z,99.51
2023-04-15T21:39:32.386Z,97.42
2023-04-15T21:42:00.492Z,100.00
2023-04-15T21:44:27.994Z,98.29
2023-04-15T21:46:56.776Z,98.92
2023-04-15T21:49:25.524Z,100.00
2023-04-15T21:51:53.021Z,100.00
2023-04-15T21:54:20.453Z,100.00
2023-04-15T21:56:49.667Z,100.00
2023-04-15T21:59:17.102Z,100.00
2023-04-15T22:01:44.622Z,100.00
2023-04-15T22:04:13.654Z,100.00
2023-04-15T22:06:41.203Z,100.00
2023-04-15T22:09:08.684Z,100.00
2023-04-15T22:11:36.192Z,100.00
2023-04-15T22:14:03.657Z,100.00
2023-04-15T22:16:31.129Z,100.00
2023-04-15T22:18:58.627Z,100.00
2023-04-15T22:21:27.763Z,100.00
2023-04-15T22:24:38.869Z,100.00
2023-04-15T22:26:42.657Z,100.00
2023-04-15T22:29:10.620Z,100.00
2023-04-15T22:31:38.111Z,100.00
2023-04-15T22:34:05.599Z,100.00
2023-04-15T22:36:34.470Z,100.00
2023-04-15T22:39:01.860Z,100.00
2023-04-15T22:41:29.344Z,100.00
2023-04-15T22:43:56.748Z,100.00
2023-04-15T22:46:24.193Z,100.00
2023-04-15T22:48:51.613Z,100.00
2023-04-15T22:51:22.699Z,100.00
2023-04-15T22:53:51.501Z,100.00
2023-04-15T22:56:19.762Z,100.00
2023-04-15T22:58:47.197Z,100.00
2023-04-15T23:01:17.323Z,100.00
2023-04-15T23:03:55.822Z,100.00
2023-04-15T23:06:28.674Z,100.00
2023-04-15T23:08:57.356Z,100.00
2023-04-15T23:11:24.771Z,100.00
2023-04-15T23:13:53.050Z,100.00
2023-04-15T23:16:20.544Z,100.00
2023-04-15T23:18:48.027Z,100.00
2023-04-15T23:21:15.672Z,100.00
2023-04-15T23:23:43.096Z,100.00
2023-04-15T23:26:11.869Z,100.00
2023-04-15T23:28:39.320Z,100.00
2023-04-15T23:31:07.628Z,100.00
2023-04-15T23:33:35.149Z,100.00
2023-04-15T23:36:02.612Z,100.00
2023-04-15T23:38:30.023Z,100.00
2023-04-15T23:40:57.506Z,100.00
2023-04-15T23:43:26.350Z,100.00
2023-04-15T23:45:53.726Z,100.00
2023-04-15T23:48:23.544Z,100.00
2023-04-15T23:50:50.991Z,100.00
2023-04-15T23:53:18.525Z,100.00
2023-04-15T23:55:45.893Z,100.00
2023-04-15T23:58:13.348Z,100.00
